createdAt,value
2022-12-20T00:01:40.992Z,44.97
2022-12-20T00:04:11.062Z,44.97
2022-12-20T00:06:38.726Z,43.75
2022-12-20T00:09:09.367Z,45.13
2022-12-20T00:11:41.094Z,42.55
2022-12-20T00:14:10.521Z,45.17
2022-12-20T00:16:38.230Z,43.13
2022-12-20T00:19:07.818Z,45.30
2022-12-20T00:21:36.372Z,43.35
2022-12-20T00:24:06.195Z,40.97
2022-12-20T00:26:35.696Z,44.75
2022-12-20T00:29:03.426Z,41.25
2022-12-20T00:31:32.636Z,41.53
2022-12-20T00:34:01.170Z,43.45
2022-12-20T00:36:31.926Z,41.10
2022-12-20T00:39:01.447Z,40.17
2022-12-20T00:41:33.586Z,41.03
2022-12-20T00:44:02.111Z,41.53
2022-12-20T00:46:31.710Z,42.40
2022-12-20T00:49:00.111Z,40.58
2022-12-20T00:51:32.529Z,41.88
2022-12-20T00:53:59.982Z,40.55
2022-12-20T00:56:27.530Z,40.60
2022-12-20T00:59:00.166Z,40.58
2022-12-20T01:01:32.662Z,40.58
2022-12-20T01:04:01.198Z,44.00
2022-12-20T01:06:30.226Z,43.13
2022-12-20T01:08:58.287Z,44.40
2022-12-20T01:11:35.938Z,43.38
2022-12-20T01:14:15.567Z,44.38
2022-12-20T01:16:46.442Z,44.10
2022-12-20T01:19:18.438Z,44.88
2022-12-20T01:21:45.957Z,45.15
2022-12-20T01:24:20.036Z,44.88
2022-12-20T01:26:47.989Z,43.92
2022-12-20T01:29:16.019Z,44.20
2022-12-20T01:31:44.605Z,46.03
2022-12-20T01:34:12.462Z,44.97
2022-12-20T01:36:40.560Z,44.78
2022-12-20T01:39:14.479Z,44.38
2022-12-20T01:41:45.329Z,46.83
2022-12-20T01:44:18.538Z,46.25
2022-12-20T01:46:49.751Z,44.42
2022-12-20T01:49:25.825Z,43.22
2022-12-20T01:52:23.041Z,43.03
2022-12-20T01:55:16.036Z,43.00
2022-12-20T01:57:59.483Z,42.63
2022-12-20T02:00:26.947Z,42.20
2022-12-20T02:02:56.018Z,40.70
2022-12-20T02:05:24.180Z,41.35
2022-12-20T02:07:56.064Z,39.72
2022-12-20T02:10:34.534Z,39.88
2022-12-20T02:13:20.264Z,38.40
2022-12-20T02:15:57.644Z,36.08
2022-12-20T02:18:46.136Z,37.20
2022-12-20T02:21:34.834Z,35.75
2022-12-20T02:25:16.978Z,34.17
2022-12-20T02:28:12.605Z,34.03
2022-12-20T02:30:45.897Z,33.07
2022-12-20T02:33:15.082Z,36.08
2022-12-20T02:35:43.040Z,36.33
2022-12-20T02:38:34.859Z,35.10
2022-12-20T02:41:25.467Z,36.95
2022-12-20T02:44:20.713Z,35.08
2022-12-20T02:46:49.095Z,36.85
2022-12-20T02:49:23.865Z,35.92
2022-12-20T02:51:54.506Z,38.63
2022-12-20T02:54:22.621Z,39.72
2022-12-20T02:57:39.329Z,39.42
2022-12-20T03:00:19.321Z,38.80
2022-12-20T03:03:07.165Z,39.83
2022-12-20T03:05:44.482Z,41.55
2022-12-20T03:08:12.432Z,44.03
2022-12-20T03:10:39.726Z,41.75
2022-12-20T03:13:07.658Z,45.60
2022-12-20T03:15:37.044Z,43.40
2022-12-20T03:18:04.908Z,46.72
2022-12-20T03:20:32.347Z,45.00
2022-12-20T03:22:59.764Z,44.45
2022-12-20T03:25:27.623Z,43.35
2022-12-20T03:27:57.685Z,47.22
2022-12-20T03:30:26.222Z,46.25
2022-12-20T03:32:53.539Z,45.58
2022-12-20T03:35:20.879Z,44.47
2022-12-20T03:37:48.088Z,46.92
2022-12-20T03:40:16.129Z,45.78
2022-12-20T03:42:44.491Z,46.38
2022-12-20T03:45:11.907Z,44.92
2022-12-20T03:47:39.527Z,47.25
2022-12-20T03:50:08.173Z,46.72
2022-12-20T03:52:36.321Z,44.72
2022-12-20T03:55:06.203Z,43.00
2022-12-20T03:57:40.409Z,47.90
2022-12-20T04:00:19.027Z,43.28
2022-12-20T04:02:49.032Z,46.08
2022-12-20T04:05:16.749Z,48.28
2022-12-20T04:07:45.288Z,48.38
2022-12-20T04:10:12.847Z,45.63
2022-12-20T04:12:40.112Z,48.78
2022-12-20T04:15:11.069Z,47.47
2022-12-20T04:17:40.654Z,47.65
2022-12-20T04:20:21.635Z,48.95
2022-12-20T04:22:57.601Z,51.97
2022-12-20T04:25:24.924Z,52.67
2022-12-20T04:27:55.311Z,51.60
2022-12-20T04:30:22.727Z,49.80
2022-12-20T04:32:54.577Z,51.08
2022-12-20T04:35:22.480Z,49.15
2022-12-20T04:37:50.224Z,47.47
2022-12-20T04:40:18.457Z,48.42
2022-12-20T04:42:49.258Z,49.42
2022-12-20T04:45:17.488Z,50.65
2022-12-20T04:47:44.991Z,50.40
2022-12-20T04:50:14.665Z,49.38
2022-12-20T04:53:02.812Z,50.28
2022-12-20T04:55:32.022Z,49.45
2022-12-20T04:58:03.736Z,51.28
2022-12-20T05:00:35.584Z,50.45
2022-12-20T05:03:10.844Z,47.78
2022-12-20T05:05:38.202Z,48.53
2022-12-20T05:08:05.856Z,47.85
2022-12-20T05:10:33.156Z,50.35
2022-12-20T05:13:07.438Z,49.80
2022-12-20T05:15:40.336Z,47.97
2022-12-20T05:18:07.815Z,49.70
2022-12-20T05:20:44.217Z,47.65
2022-12-20T05:23:31.263Z,48.55
2022-12-20T05:26:18.485Z,47.63
2022-12-20T05:28:46.151Z,49.00
2022-12-20T05:31:13.563Z,47.58
2022-12-20T05:33:40.736Z,45.55
2022-12-20T05:36:09.238Z,49.15
2022-12-20T05:38:36.826Z,49.30
2022-12-20T05:41:11.105Z,48.13
2022-12-20T05:43:38.438Z,47.42
2022-12-20T05:46:06.419Z,49.13
2022-12-20T05:48:42.598Z,47.95
2022-12-20T05:51:11.255Z,45.78
2022-12-20T05:53:55.513Z,45.35
2022-12-20T05:56:35.055Z,44.70
2022-12-20T05:59:02.384Z,42.15
2022-12-20T06:01:29.713Z,45.30
2022-12-20T06:03:59.571Z,44.22
2022-12-20T06:06:27.112Z,46.63
2022-12-20T06:08:56.201Z,42.65
2022-12-20T06:11:37.656Z,41.35
2022-12-20T06:14:09.216Z,44.92
2022-12-20T06:16:39.980Z,42.53
2022-12-20T06:19:09.576Z,44.40
2022-12-20T06:21:37.197Z,43.50
2022-12-20T06:24:06.068Z,41.67
2022-12-20T06:26:36.565Z,45.20
2022-12-20T06:29:09.133Z,46.30
2022-12-20T06:31:51.844Z,42.75
2022-12-20T06:34:19.351Z,45.75
2022-12-20T06:36:46.833Z,44.45
2022-12-20T06:39:19.295Z,43.63
2022-12-20T06:41:56.910Z,43.20
2022-12-20T06:44:24.618Z,42.35
2022-12-20T06:46:51.968Z,41.13
2022-12-20T06:49:19.502Z,41.78
2022-12-20T06:51:47.771Z,42.90
2022-12-20T06:54:15.517Z,42.47
2022-12-20T06:56:42.815Z,42.47
2022-12-20T06:59:12.320Z,41.60
2022-12-20T07:01:39.695Z,41.60
2022-12-20T07:04:06.984Z,43.97
2022-12-20T07:06:34.420Z,42.97
2022-12-20T07:09:02.230Z,42.60
2022-12-20T07:11:29.526Z,43.22
2022-12-20T07:13:58.027Z,41.67
2022-12-20T07:16:25.698Z,43.28
2022-12-20T07:18:54.111Z,42.55
2022-12-20T07:21:22.127Z,44.92
2022-12-20T07:23:49.774Z,41.78
2022-12-20T07:26:17.050Z,42.45
2022-12-20T07:28:44.714Z,42.50
2022-12-20T07:31:12.073Z,40.80
2022-12-20T07:33:39.687Z,41.95
2022-12-20T07:36:12.518Z,43.80
2022-12-20T07:38:39.995Z,42.60
2022-12-20T07:41:16.819Z,40.35
2022-12-20T07:43:44.207Z,40.83
2022-12-20T07:46:15.779Z,39.15
2022-12-20T07:48:44.658Z,39.13
2022-12-20T07:51:32.284Z,35.75
2022-12-20T07:54:10.570Z,37.42
2022-12-20T07:56:44.217Z,36.85
2022-12-20T07:59:17.943Z,45.33
2022-12-20T08:01:46.548Z,47.80
2022-12-20T08:04:21.937Z,47.88
2022-12-20T08:06:51.144Z,50.88
2022-12-20T08:09:19.259Z,48.17
2022-12-20T08:11:50.121Z,49.58
2022-12-20T08:14:19.531Z,44.53
2022-12-20T08:16:46.756Z,43.80
2022-12-20T08:19:13.963Z,45.20
2022-12-20T08:21:41.129Z,44.85
2022-12-20T08:24:08.885Z,43.58
2022-12-20T08:26:41.784Z,39.97
2022-12-20T08:29:09.823Z,42.72
2022-12-20T08:31:49.480Z,42.88
2022-12-20T08:34:18.868Z,41.78
2022-12-20T08:36:46.047Z,44.33
2022-12-20T08:39:13.466Z,43.15
2022-12-20T08:41:40.656Z,43.17
2022-12-20T08:44:08.557Z,42.78
2022-12-20T08:46:37.070Z,35.47
2022-12-20T08:49:06.107Z,39.70
2022-12-20T08:51:33.680Z,40.67
2022-12-20T08:54:02.560Z,39.42
2022-12-20T08:56:29.889Z,38.85
2022-12-20T08:58:57.533Z,34.88
2022-12-20T09:01:26.860Z,37.78
2022-12-20T09:03:54.227Z,37.83
2022-12-20T09:06:23.202Z,38.00
2022-12-20T09:08:51.156Z,40.15
2022-12-20T09:11:25.198Z,38.38
2022-12-20T09:13:57.350Z,36.88
2022-12-20T09:16:31.926Z,37.38
2022-12-20T09:19:05.583Z,34.88
2022-12-20T09:21:34.883Z,34.33
2022-12-20T09:24:02.354Z,31.27
2022-12-20T09:26:30.588Z,33.28
2022-12-20T09:28:58.740Z,33.42
2022-12-20T09:31:27.144Z,32.50
2022-12-20T09:33:57.881Z,32.67
2022-12-20T09:36:29.588Z,31.55
2022-12-20T09:38:57.624Z,31.15
2022-12-20T09:41:41.272Z,32.08
2022-12-20T09:44:30.931Z,32.55
2022-12-20T09:47:21.324Z,31.98
2022-12-20T09:49:55.249Z,34.65
2022-12-20T09:53:22.416Z,33.67
2022-12-20T09:56:03.919Z,34.50
2022-12-20T09:59:06.457Z,33.50
2022-12-20T10:01:40.001Z,33.70
2022-12-20T10:04:26.762Z,33.58
2022-12-20T10:07:19.637Z,32.25
2022-12-20T10:10:36.302Z,32.90
2022-12-20T10:13:26.167Z,33.60
2022-12-20T10:16:36.063Z,32.40
2022-12-20T10:19:43.833Z,30.45
2022-12-20T10:22:27.587Z,31.10
2022-12-20T10:25:25.172Z,31.90
2022-12-20T10:27:57.037Z,29.17
2022-12-20T10:30:28.151Z,31.83
2022-12-20T10:32:58.816Z,32.58
2022-12-20T10:35:41.378Z,28.63
2022-12-20T10:38:13.329Z,28.48
2022-12-20T10:41:21.756Z,28.27
2022-12-20T10:44:24.292Z,29.45
2022-12-20T10:46:59.561Z,28.80
2022-12-20T10:49:40.983Z,26.65
2022-12-20T10:52:08.222Z,26.67
2022-12-20T10:54:43.104Z,26.48
2022-12-20T10:57:29.447Z,22.08
2022-12-20T11:00:09.025Z,21.50
2022-12-20T11:02:42.391Z,22.23
2022-12-20T11:05:12.807Z,18.95
2022-12-20T11:10:46.432Z,19.98
2022-12-20T11:13:26.221Z,18.80
2022-12-20T11:15:57.694Z,19.67
2022-12-20T11:18:52.836Z,21.42
2022-12-20T11:21:56.647Z,21.48
2022-12-20T11:25:14.759Z,20.25
2022-12-20T11:28:10.500Z,20.00
2022-12-20T11:31:21.781Z,19.47
2022-12-20T11:34:22.848Z,19.98
2022-12-20T11:37:30.658Z,20.17
2022-12-20T11:40:28.156Z,20.08
2022-12-20T11:43:13.674Z,20.02
2022-12-20T11:46:30.650Z,20.20
2022-12-20T11:49:14.024Z,19.10
2022-12-20T11:52:33.433Z,20.17
2022-12-20T11:55:21.693Z,18.88
2022-12-20T11:58:21.081Z,18.90
2022-12-20T12:01:05.389Z,18.98
2022-12-20T12:04:17.132Z,25.35
2022-12-20T12:07:02.873Z,30.27
2022-12-20T12:10:09.723Z,33.17
2022-12-20T12:12:58.074Z,31.35
2022-12-20T12:16:03.428Z,29.67
2022-12-20T12:18:36.984Z,30.92
2022-12-20T12:21:26.358Z,30.67
2022-12-20T12:24:30.980Z,31.27
2022-12-20T12:27:02.146Z,32.47
2022-12-20T12:29:32.824Z,32.22
2022-12-20T12:32:09.927Z,30.17
2022-12-20T12:35:17.403Z,34.53
2022-12-20T12:38:15.553Z,32.75
2022-12-20T12:41:32.754Z,32.45
2022-12-20T12:44:54.310Z,43.28
2022-12-20T12:48:19.546Z,31.45
2022-12-20T12:50:53.996Z,32.17
2022-12-20T12:53:44.825Z,29.48
2022-12-20T12:56:52.022Z,32.90
2022-12-20T13:02:15.264Z,29.42
2022-12-20T13:05:07.065Z,31.60
2022-12-20T13:07:35.102Z,28.40
2022-12-20T13:10:25.057Z,30.67
2022-12-20T13:12:52.814Z,31.17
2022-12-20T13:15:22.883Z,30.15
2022-12-20T13:17:57.021Z,34.00
2022-12-20T13:20:33.714Z,31.52
2022-12-20T13:23:23.920Z,30.27
2022-12-20T13:25:52.654Z,32.55
2022-12-20T13:28:20.455Z,29.17
2022-12-20T13:31:09.853Z,30.65
2022-12-20T13:33:51.514Z,31.08
2022-12-20T13:36:37.773Z,33.05
2022-12-20T13:39:25.510Z,30.73
2022-12-20T13:42:41.489Z,32.30
2022-12-20T13:45:15.404Z,31.20
2022-12-20T13:48:01.287Z,29.10
2022-12-20T13:50:40.429Z,30.63
2022-12-20T13:53:19.900Z,27.80
2022-12-20T13:55:48.758Z,28.80
2022-12-20T13:58:36.904Z,28.58
2022-12-20T14:01:13.370Z,28.55
2022-12-20T14:03:46.256Z,29.80
2022-12-20T14:06:15.594Z,29.67
2022-12-20T14:08:49.784Z,30.13
2022-12-20T14:11:28.095Z,30.40
2022-12-20T14:14:03.007Z,31.75
2022-12-20T14:16:33.465Z,29.33
2022-12-20T14:19:07.610Z,30.85
2022-12-20T14:21:43.046Z,30.40
2022-12-20T14:24:22.603Z,29.50
2022-12-20T14:26:53.709Z,29.92
2022-12-20T14:29:30.963Z,30.63
2022-12-20T14:31:58.351Z,31.58
2022-12-20T14:34:36.701Z,31.15
2022-12-20T14:37:53.107Z,32.03
2022-12-20T14:40:21.495Z,31.90
2022-12-20T14:42:48.896Z,32.00
2022-12-20T14:45:21.375Z,32.92
2022-12-20T14:48:09.320Z,32.88
2022-12-20T14:50:40.679Z,29.10
2022-12-20T14:53:30.239Z,28.30
2022-12-20T14:55:58.170Z,35.47
2022-12-20T14:58:32.070Z,31.55
2022-12-20T15:01:27.187Z,32.85
2022-12-20T15:04:00.307Z,30.63
2022-12-20T15:06:52.500Z,31.08
2022-12-20T15:09:20.413Z,29.85
2022-12-20T15:11:48.676Z,33.55
2022-12-20T15:14:37.299Z,29.33
2022-12-20T15:17:13.193Z,31.35
2022-12-20T15:19:42.839Z,31.02
2022-12-20T15:22:18.779Z,30.23
2022-12-20T15:27:14.878Z,30.50
2022-12-20T15:29:43.168Z,31.48
2022-12-20T15:32:32.010Z,31.92
2022-12-20T15:34:59.265Z,32.63
2022-12-20T15:37:26.510Z,29.98
2022-12-20T15:39:53.735Z,31.80
2022-12-20T15:42:22.879Z,31.13
2022-12-20T15:44:50.594Z,31.45
2022-12-20T15:47:17.849Z,32.53
2022-12-20T15:49:50.130Z,32.05
2022-12-20T15:52:23.706Z,33.20
2022-12-20T15:54:51.351Z,32.58
2022-12-20T15:57:18.553Z,31.90
2022-12-20T16:00:03.410Z,30.88
2022-12-20T16:02:39.142Z,33.22
2022-12-20T16:05:10.934Z,32.58
2022-12-20T16:07:38.253Z,34.22
2022-12-20T16:10:07.949Z,32.95
2022-12-20T16:12:36.544Z,33.03
2022-12-20T16:15:05.102Z,37.65
2022-12-20T16:17:32.337Z,38.20
2022-12-20T16:19:59.543Z,41.22
2022-12-20T16:22:26.883Z,44.28
2022-12-20T16:24:54.334Z,41.25
2022-12-20T16:27:21.593Z,44.25
2022-12-20T16:29:48.895Z,49.03
2022-12-20T16:32:19.756Z,59.17
2022-12-20T16:34:49.737Z,57.00
2022-12-20T16:37:17.250Z,54.90
2022-12-20T16:39:44.993Z,51.70
2022-12-20T16:42:20.917Z,44.50
2022-12-20T16:44:52.992Z,42.72
2022-12-20T16:47:20.405Z,40.25
2022-12-20T16:49:52.834Z,38.90
2022-12-20T16:52:22.733Z,38.22
2022-12-20T16:54:50.824Z,35.22
2022-12-20T16:57:18.339Z,34.97
2022-12-20T16:59:45.508Z,36.00
2022-12-20T17:02:34.971Z,34.47
2022-12-20T17:05:02.576Z,32.95
2022-12-20T17:07:29.828Z,35.95
2022-12-20T17:09:59.194Z,33.95
2022-12-20T17:12:26.536Z,35.78
2022-12-20T17:14:53.711Z,33.80
2022-12-20T17:17:20.987Z,36.78
2022-12-20T17:19:48.213Z,34.97
2022-12-20T17:25:03.157Z,39.85
2022-12-20T17:27:30.465Z,41.63
2022-12-20T17:29:57.716Z,33.03
2022-12-20T17:32:26.116Z,35.80
2022-12-20T17:34:54.379Z,33.00
2022-12-20T17:37:21.853Z,34.65
2022-12-20T17:39:49.225Z,33.75
2022-12-20T17:42:16.835Z,33.80
2022-12-20T17:44:46.134Z,34.42
2022-12-20T17:47:13.581Z,34.60
2022-12-20T17:49:40.863Z,35.45
2022-12-20T17:52:16.212Z,33.33
2022-12-20T17:54:43.464Z,37.47
2022-12-20T17:57:15.829Z,35.92
2022-12-20T17:59:43.798Z,33.38
2022-12-20T18:02:23.215Z,35.60
2022-12-20T18:04:51.420Z,35.70
2022-12-20T18:07:18.696Z,36.55
2022-12-20T18:09:49.259Z,33.83
2022-12-20T18:12:17.896Z,36.33
2022-12-20T18:14:45.218Z,34.50
2022-12-20T18:17:12.507Z,34.90
2022-12-20T18:19:40.782Z,35.00
2022-12-20T18:22:08.101Z,34.72
2022-12-20T18:24:35.294Z,35.88
2022-12-20T18:27:02.551Z,36.28
2022-12-20T18:29:30.131Z,34.58
2022-12-20T18:31:57.644Z,35.38
2022-12-20T18:34:25.024Z,34.42
2022-12-20T18:36:52.257Z,36.30
2022-12-20T18:39:19.617Z,35.75
2022-12-20T18:41:48.264Z,38.13
2022-12-20T18:44:15.680Z,46.78
2022-12-20T18:46:42.910Z,43.78
2022-12-20T18:49:10.216Z,46.45
2022-12-20T18:51:37.495Z,39.17
2022-12-20T18:54:08.055Z,42.03
2022-12-20T18:56:38.532Z,47.88
2022-12-20T18:59:12.059Z,42.92
2022-12-20T19:01:42.337Z,44.30
2022-12-20T19:04:11.109Z,39.53
2022-12-20T19:06:38.727Z,42.35
2022-12-20T19:09:10.947Z,39.33
2022-12-20T19:11:39.582Z,35.90
2022-12-20T19:14:07.842Z,38.10
2022-12-20T19:16:35.805Z,38.63
2022-12-20T19:19:04.220Z,37.58
2022-12-20T19:21:35.145Z,37.38
2022-12-20T19:24:06.944Z,37.20
2022-12-20T19:26:37.523Z,39.85
2022-12-20T19:29:06.450Z,38.28
2022-12-20T19:31:37.490Z,34.88
2022-12-20T19:34:11.213Z,35.20
2022-12-20T19:36:43.123Z,33.88
2022-12-20T19:39:22.126Z,39.50
2022-12-20T19:42:21.828Z,38.80
2022-12-20T19:44:37.832Z,35.45
2022-12-20T19:47:05.341Z,35.17
2022-12-20T19:49:32.727Z,32.42
2022-12-20T19:51:59.989Z,36.05
2022-12-20T19:54:27.567Z,36.63
2022-12-20T19:56:54.813Z,36.45
2022-12-20T19:59:22.211Z,39.35
2022-12-20T20:01:49.544Z,40.22
2022-12-20T20:04:16.803Z,38.47
2022-12-20T20:06:44.181Z,39.80
2022-12-20T20:09:11.422Z,41.40
2022-12-20T20:11:38.625Z,39.33
2022-12-20T20:14:09.176Z,40.08
2022-12-20T20:16:37.867Z,39.05
2022-12-20T20:19:05.561Z,39.70
2022-12-20T20:21:36.229Z,37.55
2022-12-20T20:24:04.063Z,38.92
2022-12-20T20:26:31.829Z,39.22
2022-12-20T20:29:02.356Z,39.15
2022-12-20T20:31:30.462Z,38.78
2022-12-20T20:33:58.481Z,38.95
2022-12-20T20:36:25.779Z,38.22
2022-12-20T20:38:53.265Z,37.83
2022-12-20T20:41:20.491Z,38.55
2022-12-20T20:43:48.024Z,36.92
2022-12-20T20:46:17.447Z,39.20
2022-12-20T20:48:45.708Z,36.88
2022-12-20T20:51:13.393Z,41.53
2022-12-20T20:53:41.014Z,42.40
2022-12-20T20:56:09.586Z,37.67
2022-12-20T20:58:38.017Z,41.70
2022-12-20T21:01:09.084Z,42.60
2022-12-20T21:03:37.377Z,38.95
2022-12-20T21:06:37.042Z,40.45
2022-12-20T21:08:55.468Z,38.58
2022-12-20T21:11:23.286Z,38.92
2022-12-20T21:13:50.567Z,40.42
2022-12-20T21:16:22.526Z,42.17
2022-12-20T21:18:56.912Z,41.67
2022-12-20T21:21:26.144Z,42.20
2022-12-20T21:23:54.901Z,38.28
2022-12-20T21:26:25.189Z,39.38
2022-12-20T21:29:00.951Z,40.22
2022-12-20T21:33:57.252Z,40.42
2022-12-20T21:36:24.936Z,42.72
2022-12-20T21:38:58.033Z,43.13
2022-12-20T21:41:28.405Z,44.35
2022-12-20T21:43:58.899Z,44.85
2022-12-20T21:46:29.099Z,45.45
2022-12-20T21:48:56.553Z,46.03
2022-12-20T21:51:27.103Z,47.60
2022-12-20T21:54:01.456Z,47.45
2022-12-20T21:56:34.128Z,47.75
2022-12-20T21:59:04.027Z,46.90
2022-12-20T22:01:32.107Z,49.38
2022-12-20T22:04:04.070Z,46.97
2022-12-20T22:06:32.452Z,49.03
2022-12-20T22:09:02.158Z,50.60
2022-12-20T22:11:29.402Z,50.28
2022-12-20T22:13:57.984Z,51.58
2022-12-20T22:16:30.043Z,51.58
2022-12-20T22:18:59.444Z,51.13
2022-12-20T22:21:31.362Z,54.22
2022-12-20T22:24:01.119Z,52.55
2022-12-20T22:26:32.080Z,53.75
2022-12-20T22:29:04.084Z,53.20
2022-12-20T22:31:32.245Z,53.88
2022-12-20T22:34:00.251Z,54.53
2022-12-20T22:36:28.409Z,53.40
2022-12-20T22:38:57.227Z,51.95
2022-12-20T22:41:34.816Z,52.50
2022-12-20T22:44:03.237Z,56.15
2022-12-20T22:46:30.922Z,52.92
2022-12-20T22:49:01.454Z,49.08
2022-12-20T22:51:30.840Z,51.53
2022-12-20T22:53:59.550Z,52.40
2022-12-20T22:56:27.177Z,54.22
2022-12-20T22:58:54.453Z,54.15
2022-12-20T23:01:21.960Z,49.28
2022-12-20T23:03:49.597Z,43.92
2022-12-20T23:06:20.735Z,44.65
2022-12-20T23:08:49.190Z,49.38
2022-12-20T23:11:45.758Z,49.33
2022-12-20T23:17:06.501Z,49.08
2022-12-20T23:19:53.336Z,45.40
2022-12-20T23:22:39.390Z,47.25
2022-12-20T23:25:18.127Z,47.17
2022-12-20T23:27:49.252Z,51.15
2022-12-20T23:30:22.254Z,50.88
2022-12-20T23:32:49.921Z,49.25
2022-12-20T23:35:20.007Z,50.53
2022-12-20T23:37:48.325Z,48.25
2022-12-20T23:40:17.433Z,48.30
2022-12-20T23:42:45.381Z,49.75
2022-12-20T23:45:12.613Z,50.47
2022-12-20T23:47:39.962Z,50.83
2022-12-20T23:50:08.246Z,48.88
2022-12-20T23:52:35.533Z,52.17
2022-12-20T23:55:03.140Z,47.97
2022-12-20T23:57:31.343Z,50.90
2022-12-20T23:59:58.684Z,50.30
